Time;durP1;ratioP1;P1;durP2;ratioP2;P2;SDS_P1;SDS_P2;PMS_P1;PMS_P2;Temp;Humidity;BMP_temperature;BMP_pressure;BME280_temperature;BME280_humidity;BME280_pressure;Samples;Min_cycle;Max_cycle;Signal;HPM_P1;HPM_P2
2022/05/12 00:01:30;;;;;;;8.17;4.03;;;;;;;;;;5033531;28;20177;-66
2022/05/12 00:03:56;;;;;;;4.37;3.47;;;;;;;;;;5033072;28;20281;-66
2022/05/12 00:06:22;;;;;;;4.87;3.77;;;;;;;;;;5033435;28;20215;-66
2022/05/12 00:08:48;;;;;;;8.97;4.30;;;;;;;;;;5033675;28;20179;-66
2022/05/12 00:11:14;;;;;;;5.43;3.60;;;;;;;;;;5031738;28;20299;-66
2022/05/12 00:13:40;;;;;;;6.30;3.50;;;;;;;;;;5032727;28;20214;-66
2022/05/12 00:16:06;;;;;;;7.33;3.50;;;;;;;;;;5036478;28;20175;-66
2022/05/12 00:18:32;;;;;;;8.70;3.50;;;;;;;;;;5036829;28;20225;-66
2022/05/12 00:20:58;;;;;;;8.10;4.13;;;;;;;;;;5035727;28;20180;-66
2022/05/12 00:23:29;;;;;;;4.00;3.57;;;;;;;;;;5036973;28;20202;-66
2022/05/12 00:25:56;;;;;;;8.80;4.07;;;;;;;;;;5035576;28;20202;-66
2022/05/12 00:28:25;;;;;;;4.87;3.43;;;;;;;;;;5036954;28;20179;-65
2022/05/12 00:30:51;;;;;;;7.67;4.47;;;;;;;;;;5035277;28;20183;-66
2022/05/12 00:33:18;;;;;;;5.57;3.80;;;;;;;;;;5036528;28;20247;-66
2022/05/12 00:35:45;;;;;;;5.93;3.40;;;;;;;;;;5036508;28;20546;-66
2022/05/12 00:38:12;;;;;;;4.77;3.63;;;;;;;;;;5035211;28;20559;-66
2022/05/12 00:40:39;;;;;;;5.67;3.60;;;;;;;;;;5036513;28;20187;-66
2022/05/12 00:43:06;;;;;;;5.07;3.17;;;;;;;;;;5036383;28;20203;-66
2022/05/12 00:45:35;;;;;;;5.67;3.47;;;;;;;;;;5036562;28;20179;-66
2022/05/12 00:48:01;;;;;;;5.70;3.20;;;;;;;;;;5036428;28;20659;-66
2022/05/12 00:50:30;;;;;;;5.10;3.30;;;;;;;;;;5035240;28;20186;-66
2022/05/12 00:52:58;;;;;;;6.33;3.40;;;;;;;;;;5036450;28;20215;-66
2022/05/12 00:55:28;;;;;;;3.20;2.80;;;;;;;;;;5036288;28;20245;-66
2022/05/12 00:57:56;;;;;;;3.90;3.00;;;;;;;;;;5036283;28;20183;-67
2022/05/12 01:00:23;;;;;;;3.80;2.90;;;;;;;;;;5034975;28;20179;-67
2022/05/12 01:02:51;;;;;;;5.13;2.63;;;;;;;;;;5034846;28;20230;-68
2022/05/12 01:05:18;;;;;;;5.77;3.33;;;;;;;;;;5034736;28;20183;-67
2022/05/12 01:07:44;;;;;;;5.23;3.13;;;;;;;;;;5035982;28;20179;-66
2022/05/12 01:10:10;;;;;;;4.67;2.87;;;;;;;;;;5034823;28;20179;-68
2022/05/12 01:12:40;;;;;;;4.10;2.83;;;;;;;;;;5035805;28;20183;-67
2022/05/12 01:15:06;;;;;;;6.10;3.20;;;;;;;;;;5036293;28;20171;-67
2022/05/12 01:17:32;;;;;;;4.23;3.00;;;;;;;;;;5037835;28;20187;-67
2022/05/12 01:19:59;;;;;;;5.47;2.90;;;;;;;;;;5037037;28;20541;-67
2022/05/12 01:22:40;;;;;;;3.63;3.10;;;;;;;;;;5036894;28;20179;-66
2022/05/12 01:25:11;;;;;;;7.80;3.17;;;;;;;;;;5036769;28;20167;-67
2022/05/12 01:27:37;;;;;;;6.07;2.83;;;;;;;;;;5036141;28;20186;-67
2022/05/12 01:30:04;;;;;;;6.00;3.10;;;;;;;;;;5036163;28;20181;-67
2022/05/12 01:32:30;;;;;;;6.10;3.30;;;;;;;;;;5035887;28;20232;-67
2022/05/12 01:34:56;;;;;;;6.93;3.20;;;;;;;;;;5034323;28;20182;-67
2022/05/12 01:37:23;;;;;;;6.37;3.37;;;;;;;;;;5035591;28;20246;-67
2022/05/12 01:39:49;;;;;;;4.07;3.00;;;;;;;;;;5035488;28;20163;-67
2022/05/12 01:42:16;;;;;;;5.13;3.10;;;;;;;;;;5035401;28;20228;-67
2022/05/12 01:44:42;;;;;;;7.83;3.40;;;;;;;;;;5035346;28;20223;-68
2022/05/12 01:47:08;;;;;;;4.70;3.10;;;;;;;;;;5036144;28;20565;-67
2022/05/12 01:49:34;;;;;;;5.17;3.20;;;;;;;;;;5035793;28;20175;-67
2022/05/12 01:52:01;;;;;;;3.30;3.00;;;;;;;;;;5035184;28;20176;-67
2022/05/12 01:54:28;;;;;;;5.07;3.00;;;;;;;;;;5035052;28;20218;-67
2022/05/12 01:56:54;;;;;;;6.20;3.40;;;;;;;;;;5035417;28;20662;-67
2022/05/12 01:59:20;;;;;;;4.37;3.57;;;;;;;;;;5035385;28;20186;-67
2022/05/12 02:01:47;;;;;;;6.20;2.87;;;;;;;;;;5033724;28;20183;-67
2022/05/12 02:04:13;;;;;;;4.37;2.90;;;;;;;;;;5035038;28;20208;-67
2022/05/12 02:06:39;;;;;;;4.90;3.10;;;;;;;;;;5035264;28;20560;-67
2022/05/12 02:09:05;;;;;;;3.43;2.93;;;;;;;;;;5034950;28;20206;-67
2022/05/12 02:11:31;;;;;;;5.30;2.83;;;;;;;;;;5035375;28;20262;-67
2022/05/12 02:13:57;;;;;;;4.20;2.60;;;;;;;;;;5033320;28;20318;-67
2022/05/12 02:16:25;;;;;;;6.90;3.60;;;;;;;;;;5034993;28;20536;-67
2022/05/12 02:18:52;;;;;;;7.73;3.07;;;;;;;;;;5033490;28;20270;-67
2022/05/12 02:21:18;;;;;;;5.10;3.43;;;;;;;;;;5034759;28;20206;-67
2022/05/12 02:23:44;;;;;;;7.17;3.47;;;;;;;;;;5034692;28;20577;-67
2022/05/12 02:26:10;;;;;;;6.80;3.40;;;;;;;;;;5033407;28;20183;-67
2022/05/12 02:28:36;;;;;;;3.47;3.17;;;;;;;;;;5034658;28;20179;-67
2022/05/12 02:31:02;;;;;;;7.47;3.60;;;;;;;;;;5033301;28;20229;-67
2022/05/12 02:33:28;;;;;;;6.23;3.10;;;;;;;;;;5034390;28;20213;-67
2022/05/12 02:35:55;;;;;;;5.13;3.30;;;;;;;;;;5034757;28;20182;-67
2022/05/12 02:38:21;;;;;;;4.57;3.67;;;;;;;;;;5033626;28;20175;-67
2022/05/12 02:40:47;;;;;;;4.10;3.50;;;;;;;;;;5034357;28;20228;-67
2022/05/12 02:43:25;;;;;;;5.10;3.27;;;;;;;;;;5032953;28;20198;-67
2022/05/12 02:45:53;;;;;;;4.83;3.47;;;;;;;;;;5033013;28;20174;-67
2022/05/12 02:48:20;;;;;;;4.13;3.20;;;;;;;;;;5034253;28;20183;-67
2022/05/12 02:50:46;;;;;;;5.30;3.40;;;;;;;;;;5034160;28;20171;-67
2022/05/12 02:53:12;;;;;;;6.47;3.30;;;;;;;;;;5033941;28;20207;-67
2022/05/12 02:55:38;;;;;;;5.07;3.50;;;;;;;;;;5034074;28;20257;-67
2022/05/12 02:58:04;;;;;;;6.70;3.53;;;;;;;;;;5034236;28;20225;-67
2022/05/12 03:00:31;;;;;;;7.27;3.70;;;;;;;;;;5034207;28;20171;-67
2022/05/12 03:02:57;;;;;;;4.10;3.30;;;;;;;;;;5034127;28;20213;-68
2022/05/12 03:05:24;;;;;;;8.03;3.73;;;;;;;;;;5032625;28;20183;-67
2022/05/12 03:07:49;;;;;;;5.13;3.60;;;;;;;;;;5034285;28;20197;-67
2022/05/12 03:10:16;;;;;;;7.27;3.80;;;;;;;;;;5032841;28;20656;-66
2022/05/12 03:12:42;;;;;;;6.83;4.07;;;;;;;;;;5034376;28;20194;-67
2022/05/12 03:15:08;;;;;;;7.07;4.00;;;;;;;;;;5032878;28;20310;-67
2022/05/12 03:17:35;;;;;;;5.37;3.23;;;;;;;;;;5032669;28;20182;-66
2022/05/12 03:20:01;;;;;;;5.87;3.90;;;;;;;;;;5032671;28;20606;-67
2022/05/12 03:22:27;;;;;;;6.10;3.87;;;;;;;;;;5032377;28;20186;-67
2022/05/12 03:24:53;;;;;;;7.17;4.23;;;;;;;;;;5033729;28;20550;-67
2022/05/12 03:27:19;;;;;;;4.20;3.03;;;;;;;;;;5033532;28;20233;-68
2022/05/12 03:29:45;;;;;;;6.53;3.70;;;;;;;;;;5032161;28;20179;-67
2022/05/12 03:32:12;;;;;;;7.30;4.30;;;;;;;;;;5033614;28;20237;-67
2022/05/12 03:34:39;;;;;;;7.83;3.60;;;;;;;;;;5032047;28;20211;-67
2022/05/12 03:37:05;;;;;;;4.30;3.67;;;;;;;;;;5033381;28;20258;-67
2022/05/12 03:39:31;;;;;;;6.63;4.07;;;;;;;;;;5033599;28;20233;-67
2022/05/12 03:41:57;;;;;;;9.20;4.07;;;;;;;;;;5033300;28;20175;-67
2022/05/12 03:47:08;;;;;;;8.57;4.43;;;;;;;;;;5033578;28;20194;-67
2022/05/12 03:49:34;;;;;;;7.10;3.73;;;;;;;;;;5033051;28;20183;-67
2022/05/12 03:52:00;;;;;;;5.83;3.90;;;;;;;;;;5031928;28;20186;-67
2022/05/12 03:54:26;;;;;;;4.33;3.10;;;;;;;;;;5033023;28;20284;-67
2022/05/12 03:56:51;;;;;;;6.57;3.77;;;;;;;;;;5031851;28;20187;-67
2022/05/12 03:59:17;;;;;;;5.60;3.90;;;;;;;;;;5033111;28;20179;-67
2022/05/12 04:01:43;;;;;;;5.33;3.60;;;;;;;;;;5033066;28;20261;-67
2022/05/12 04:04:09;;;;;;;5.43;4.17;;;;;;;;;;5033026;28;20210;-67
2022/05/12 04:06:36;;;;;;;5.90;4.40;;;;;;;;;;5031841;28;20179;-67
2022/05/12 04:09:02;;;;;;;7.87;4.30;;;;;;;;;;5031747;28;20195;-67
2022/05/12 04:11:28;;;;;;;6.23;4.27;;;;;;;;;;5033326;28;20183;-67
2022/05/12 04:13:54;;;;;;;4.00;3.60;;;;;;;;;;5032685;28;20215;-67
2022/05/12 04:16:20;;;;;;;6.00;4.67;;;;;;;;;;5033238;28;20183;-67
2022/05/12 04:18:46;;;;;;;6.43;4.20;;;;;;;;;;5032900;28;20175;-67
2022/05/12 04:21:12;;;;;;;5.10;4.23;;;;;;;;;;5033506;28;20182;-67
2022/05/12 04:26:13;;;;;;;6.73;4.30;;;;;;;;;;5052166;28;20205;-66
2022/05/12 04:28:39;;;;;;;7.40;4.90;;;;;;;;;;5035800;28;20193;-66
2022/05/12 04:31:05;;;;;;;7.30;4.33;;;;;;;;;;5053344;28;20194;-67
2022/05/12 04:36:15;;;;;;;4.50;4.00;;;;;;;;;;5033393;28;20271;-66
2022/05/12 04:38:41;;;;;;;6.67;4.17;;;;;;;;;;5015413;28;20175;-67
2022/05/12 04:41:08;;;;;;;6.60;4.47;;;;;;;;;;5015952;28;20183;-66
2022/05/12 04:43:34;;;;;;;6.50;4.20;;;;;;;;;;5032960;28;20179;-66
2022/05/12 04:46:00;;;;;;;5.77;4.63;;;;;;;;;;5015191;28;20210;-66
2022/05/12 04:48:29;;;;;;;4.53;4.00;;;;;;;;;;5032905;28;20187;-67
2022/05/12 04:50:56;;;;;;;6.27;4.70;;;;;;;;;;5015228;28;20194;-66
2022/05/12 04:53:22;;;;;;;7.50;4.50;;;;;;;;;;5032955;28;20207;-67
2022/05/12 04:55:48;;;;;;;7.90;4.00;;;;;;;;;;5032962;28;20195;-66
2022/05/12 04:58:14;;;;;;;5.97;4.20;;;;;;;;;;5032991;28;20600;-66
2022/05/12 05:00:41;;;;;;;6.73;4.20;;;;;;;;;;5034196;28;20203;-62
2022/05/12 05:03:08;;;;;;;6.03;4.47;;;;;;;;;;5036593;28;20175;-62
2022/05/12 05:05:34;;;;;;;8.33;4.80;;;;;;;;;;5018602;28;20203;-62
2022/05/12 05:08:00;;;;;;;9.53;3.83;;;;;;;;;;5036332;28;20187;-62
2022/05/12 05:10:27;;;;;;;4.57;4.00;;;;;;;;;;5036118;28;20644;-62
2022/05/12 05:12:53;;;;;;;8.57;4.73;;;;;;;;;;5036350;28;20249;-62
2022/05/12 05:15:20;;;;;;;7.27;3.60;;;;;;;;;;5018164;28;20195;-62
2022/05/12 05:17:46;;;;;;;8.53;3.63;;;;;;;;;;5018635;28;20179;-62
2022/05/12 05:20:16;;;;;;;7.00;3.80;;;;;;;;;;5036206;28;20171;-62
2022/05/12 05:22:43;;;;;;;7.50;4.10;;;;;;;;;;5018234;28;20179;-62
2022/05/12 05:25:09;;;;;;;5.50;3.83;;;;;;;;;;5035742;28;20573;-62
2022/05/12 05:27:35;;;;;;;6.40;3.10;;;;;;;;;;5036067;28;20201;-62
2022/05/12 05:30:01;;;;;;;6.33;3.30;;;;;;;;;;5018258;28;20183;-62
2022/05/12 05:32:27;;;;;;;4.10;3.70;;;;;;;;;;5035975;28;20183;-62
2022/05/12 05:34:53;;;;;;;4.43;3.27;;;;;;;;;;5018535;28;20214;-62
2022/05/12 05:37:20;;;;;;;3.57;3.10;;;;;;;;;;5035856;28;20245;-63
2022/05/12 05:39:46;;;;;;;6.30;3.03;;;;;;;;;;5018242;28;20182;-63
2022/05/12 05:42:14;;;;;;;7.10;2.93;;;;;;;;;;5035959;28;20175;-63
2022/05/12 05:44:41;;;;;;;6.77;4.67;;;;;;;;;;5036055;28;20278;-63
2022/05/12 05:47:07;;;;;;;4.97;3.13;;;;;;;;;;5036525;28;20233;-63
2022/05/12 05:49:34;;;;;;;4.73;3.13;;;;;;;;;;5036439;28;20217;-63
2022/05/12 05:54:44;;;;;;;6.20;3.47;;;;;;;;;;5036659;28;20288;-63
2022/05/12 05:57:10;;;;;;;9.00;3.50;;;;;;;;;;5036436;28;20179;-63
2022/05/12 05:59:37;;;;;;;8.50;3.47;;;;;;;;;;5035981;28;20186;-64
2022/05/12 06:02:04;;;;;;;5.53;3.20;;;;;;;;;;5035386;28;20202;-64
2022/05/12 06:04:29;;;;;;;5.07;3.37;;;;;;;;;;5035328;28;20667;-63
2022/05/12 06:06:56;;;;;;;12.80;4.50;;;;;;;;;;5035247;28;20183;-63
2022/05/12 06:09:22;;;;;;;7.03;3.67;;;;;;;;;;5017404;28;20639;-63
2022/05/12 06:11:49;;;;;;;7.67;3.53;;;;;;;;;;5034973;28;20183;-63
2022/05/12 06:14:15;;;;;;;8.30;4.17;;;;;;;;;;5017604;28;20754;-63
2022/05/12 06:16:42;;;;;;;5.30;3.77;;;;;;;;;;5035251;28;20171;-63
2022/05/12 06:19:08;;;;;;;9.90;4.30;;;;;;;;;;5034938;28;20225;-63
2022/05/12 06:21:38;;;;;;;8.83;4.77;;;;;;;;;;5017169;28;20178;-63
2022/05/12 06:24:04;;;;;;;10.23;5.07;;;;;;;;;;5034661;28;20659;-63
2022/05/12 06:26:30;;;;;;;9.77;5.47;;;;;;;;;;5034758;28;20191;-63
2022/05/12 06:28:58;;;;;;;11.57;4.60;;;;;;;;;;5034692;28;20202;-63
2022/05/12 06:31:30;;;;;;;9.33;5.23;;;;;;;;;;5034841;28;20183;-63
2022/05/12 06:33:57;;;;;;;10.60;5.67;;;;;;;;;;5034739;28;20261;-63
2022/05/12 06:36:23;;;;;;;8.63;5.87;;;;;;;;;;5034732;28;20179;-63
2022/05/12 06:38:49;;;;;;;11.40;5.83;;;;;;;;;;5034600;28;20179;-63
2022/05/12 06:41:16;;;;;;;8.07;5.50;;;;;;;;;;5034828;28;20175;-62
2022/05/12 06:43:45;;;;;;;11.97;6.27;;;;;;;;;;5034843;28;20187;-63
2022/05/12 06:46:15;;;;;;;8.90;5.63;;;;;;;;;;5034637;28;20183;-63
2022/05/12 06:48:42;;;;;;;9.77;5.93;;;;;;;;;;5016915;28;20194;-63
2022/05/12 06:51:08;;;;;;;8.30;6.27;;;;;;;;;;5034472;28;20321;-63
2022/05/12 06:53:34;;;;;;;9.63;6.10;;;;;;;;;;5016599;28;20199;-62
2022/05/12 06:56:01;;;;;;;11.70;6.87;;;;;;;;;;5034370;28;20206;-63
2022/05/12 06:58:27;;;;;;;12.03;6.33;;;;;;;;;;5016531;28;20265;-62
2022/05/12 07:00:52;;;;;;;11.80;6.63;;;;;;;;;;5034531;28;20203;-63
2022/05/12 07:03:19;;;;;;;9.60;6.53;;;;;;;;;;5034316;28;20190;-60
2022/05/12 07:05:45;;;;;;;12.50;7.40;;;;;;;;;;5016484;28;20207;-60
2022/05/12 07:08:12;;;;;;;13.87;7.43;;;;;;;;;;5034523;28;20531;-62
2022/05/12 07:10:38;;;;;;;10.67;6.60;;;;;;;;;;5034718;28;20341;-63
2022/05/12 07:13:05;;;;;;;11.20;7.13;;;;;;;;;;5033846;28;20729;-63
2022/05/12 07:15:31;;;;;;;9.60;6.67;;;;;;;;;;5034027;28;20724;-63
2022/05/12 07:17:58;;;;;;;10.40;7.70;;;;;;;;;;5016268;28;20191;-63
2022/05/12 07:28:39;;;;;;;10.23;6.43;;;;;;;;;;5034197;28;20178;-63
2022/05/12 07:31:06;;;;;;;11.00;6.77;;;;;;;;;;5016048;28;20240;-63
2022/05/12 07:33:45;;;;;;;11.00;7.23;;;;;;;;;;5034006;28;20234;-63
2022/05/12 07:36:13;;;;;;;10.07;7.10;;;;;;;;;;5034001;28;20159;-63
2022/05/12 07:38:39;;;;;;;9.20;7.23;;;;;;;;;;5015863;28;20179;-63
2022/05/12 07:41:07;;;;;;;9.10;7.37;;;;;;;;;;5033730;28;20175;-63
2022/05/12 07:43:33;;;;;;;8.43;6.07;;;;;;;;;;5016806;28;20183;-63
2022/05/12 07:46:00;;;;;;;10.30;7.80;;;;;;;;;;5033537;28;20268;-63
2022/05/12 07:48:26;;;;;;;15.67;7.60;;;;;;;;;;5034067;28;20632;-64
2022/05/12 07:50:52;;;;;;;8.90;7.30;;;;;;;;;;5033736;28;20399;-62
2022/05/12 07:53:18;;;;;;;10.17;7.53;;;;;;;;;;5033589;28;20326;-62
2022/05/12 07:55:44;;;;;;;12.33;7.40;;;;;;;;;;5033372;28;20194;-62
2022/05/12 07:58:11;;;;;;;10.83;7.70;;;;;;;;;;5015668;28;20181;-62
2022/05/12 08:00:37;;;;;;;11.43;7.33;;;;;;;;;;5033406;28;20179;-62
2022/05/12 08:03:03;;;;;;;12.10;7.67;;;;;;;;;;5033539;28;20254;-62
2022/05/12 08:05:30;;;;;;;8.90;6.30;;;;;;;;;;5015446;28;20737;-63
2022/05/12 08:07:55;;;;;;;8.43;6.37;;;;;;;;;;5033508;28;20176;-62
2022/05/12 08:10:22;;;;;;;9.13;6.40;;;;;;;;;;5033360;28;20179;-62
2022/05/12 08:12:49;;;;;;;10.27;6.90;;;;;;;;;;5033357;28;20257;-62
2022/05/12 08:15:15;;;;;;;7.50;6.47;;;;;;;;;;5033245;28;20198;-63
2022/05/12 08:17:41;;;;;;;11.30;7.07;;;;;;;;;;5033345;28;20182;-62
2022/05/12 08:20:11;;;;;;;11.20;6.53;;;;;;;;;;5033504;28;20179;-62
2022/05/12 08:22:37;;;;;;;8.37;6.30;;;;;;;;;;5033186;28;20175;-62
2022/05/12 08:25:04;;;;;;;9.67;6.00;;;;;;;;;;5015156;28;20765;-62
2022/05/12 08:27:30;;;;;;;7.97;6.03;;;;;;;;;;5033565;28;20179;-63
2022/05/12 08:29:56;;;;;;;10.03;6.30;;;;;;;;;;5015596;28;20190;-63
2022/05/12 08:32:22;;;;;;;7.73;5.87;;;;;;;;;;5033281;28;20245;-63
2022/05/12 08:34:49;;;;;;;8.47;6.00;;;;;;;;;;5033189;28;20237;-63
2022/05/12 08:37:15;;;;;;;6.30;5.20;;;;;;;;;;5036757;28;20214;-62
2022/05/12 08:39:44;;;;;;;7.20;5.50;;;;;;;;;;5018965;28;20175;-62
2022/05/12 08:42:26;;;;;;;7.27;5.60;;;;;;;;;;5037525;28;20617;-62
2022/05/12 08:44:52;;;;;;;9.93;5.40;;;;;;;;;;5036700;28;20195;-63
2022/05/12 08:47:23;;;;;;;9.63;6.63;;;;;;;;;;5036826;28;20221;-63
2022/05/12 08:49:53;;;;;;;7.07;5.80;;;;;;;;;;5037065;28;20527;-64
2022/05/12 08:52:34;;;;;;;8.07;5.97;;;;;;;;;;5037006;28;20198;-63
2022/05/12 08:55:13;;;;;;;11.77;6.83;;;;;;;;;;5036578;28;20214;-63
2022/05/12 08:57:43;;;;;;;8.97;6.70;;;;;;;;;;5018688;28;20185;-62
2022/05/12 09:00:11;;;;;;;8.00;6.60;;;;;;;;;;5036661;28;20167;-62
2022/05/12 09:02:37;;;;;;;8.03;6.53;;;;;;;;;;5036676;28;20254;-62
2022/05/12 09:05:14;;;;;;;8.17;6.03;;;;;;;;;;5036651;28;20690;-63
2022/05/12 09:07:44;;;;;;;7.30;6.43;;;;;;;;;;5036961;28;20166;-64
2022/05/12 09:10:31;;;;;;;8.40;6.87;;;;;;;;;;5036543;28;20183;-63
2022/05/12 09:13:00;;;;;;;9.47;7.23;;;;;;;;;;5036077;28;20175;-63
2022/05/12 09:15:28;;;;;;;10.00;7.17;;;;;;;;;;5018344;28;20206;-63
2022/05/12 09:18:14;;;;;;;15.90;7.77;;;;;;;;;;5036111;28;20178;-62
2022/05/12 09:20:39;;;;;;;10.33;6.80;;;;;;;;;;5036248;28;20170;-62
2022/05/12 09:23:06;;;;;;;6.90;5.97;;;;;;;;;;5018303;28;20271;-62
2022/05/12 09:25:32;;;;;;;7.87;6.70;;;;;;;;;;5035948;28;20219;-62
2022/05/12 09:27:58;;;;;;;7.53;6.73;;;;;;;;;;5018229;28;20179;-62
2022/05/12 09:30:32;;;;;;;7.80;6.30;;;;;;;;;;5018095;28;20214;-62
2022/05/12 09:32:59;;;;;;;8.63;6.27;;;;;;;;;;5017971;28;20179;-62
2022/05/12 09:35:26;;;;;;;6.87;6.10;;;;;;;;;;5035909;28;20560;-62
2022/05/12 09:37:52;;;;;;;6.37;5.73;;;;;;;;;;5036205;28;20179;-62
2022/05/12 09:40:21;;;;;;;8.07;6.67;;;;;;;;;;5017932;28;20179;-61
2022/05/12 09:42:49;;;;;;;8.47;6.47;;;;;;;;;;5017958;28;20179;-63
2022/05/12 09:45:41;;;;;;;9.87;5.43;;;;;;;;;;5035589;28;20572;-63
2022/05/12 09:48:10;;;;;;;7.83;5.37;;;;;;;;;;5031762;28;20198;-63
2022/05/12 09:50:37;;;;;;;5.73;5.13;;;;;;;;;;5035750;28;20176;-62
2022/05/12 09:53:06;;;;;;;8.00;5.10;;;;;;;;;;5035365;28;20214;-63
2022/05/12 09:55:37;;;;;;;5.90;4.23;;;;;;;;;;5035566;28;20288;-63
2022/05/12 09:58:05;;;;;;;7.03;4.27;;;;;;;;;;5017833;28;20543;-63
2022/05/12 10:00:32;;;;;;;3.10;2.73;;;;;;;;;;5017621;28;20210;-63
2022/05/12 10:09:01;;;;;;;5.73;4.00;;;;;;;;;;5035172;28;20187;-62
2022/05/12 10:11:28;;;;;;;3.93;3.13;;;;;;;;;;5035375;28;20630;-63
2022/05/12 10:13:55;;;;;;;3.47;2.80;;;;;;;;;;5035202;28;20337;-63
2022/05/12 10:16:25;;;;;;;3.73;2.80;;;;;;;;;;5035022;28;20186;-63
2022/05/12 10:18:53;;;;;;;5.77;2.93;;;;;;;;;;5017361;28;20639;-63
2022/05/12 10:21:24;;;;;;;4.77;3.07;;;;;;;;;;5034948;28;20171;-63
2022/05/12 10:24:10;;;;;;;3.60;3.00;;;;;;;;;;5034953;28;20191;-63
2022/05/12 10:29:16;;;;;;;4.47;2.70;;;;;;;;;;5053152;28;20296;-65
2022/05/12 10:31:58;;;;;;;4.03;2.83;;;;;;;;;;5054556;28;20635;-65
2022/05/12 10:34:36;;;;;;;8.30;3.50;;;;;;;;;;5054438;28;20201;-65
2022/05/12 10:37:01;;;;;;;5.37;3.30;;;;;;;;;;5036483;28;20529;-65
2022/05/12 10:39:47;;;;;;;3.13;2.63;;;;;;;;;;5036399;28;20182;-66
2022/05/12 10:42:30;;;;;;;3.90;2.60;;;;;;;;;;5054252;28;20177;-66
2022/05/12 10:44:56;;;;;;;2.63;2.40;;;;;;;;;;5036326;28;20209;-65
2022/05/12 10:47:28;;;;;;;4.07;2.83;;;;;;;;;;5054100;28;20667;-65
2022/05/12 10:50:00;;;;;;;5.87;2.50;;;;;;;;;;5054139;28;20538;-65
2022/05/12 10:52:55;;;;;;;2.17;1.73;;;;;;;;;;5054076;28;20265;-65
2022/05/12 10:55:40;;;;;;;3.87;2.10;;;;;;;;;;5036876;28;20202;-65
2022/05/12 10:58:19;;;;;;;2.57;2.17;;;;;;;;;;5053234;28;20194;-65
2022/05/12 11:00:48;;;;;;;2.70;2.50;;;;;;;;;;5036064;28;20269;-65
2022/05/12 11:03:25;;;;;;;3.83;2.53;;;;;;;;;;5053892;28;20691;-65
2022/05/12 11:05:54;;;;;;;7.80;3.13;;;;;;;;;;5054380;28;20170;-65
2022/05/12 11:08:29;;;;;;;3.10;2.80;;;;;;;;;;5053960;28;20206;-65
2022/05/12 11:11:01;;;;;;;3.90;2.50;;;;;;;;;;5053777;28;20259;-65
2022/05/12 11:13:37;;;;;;;4.10;3.00;;;;;;;;;;5035793;28;20233;-65
2022/05/12 11:16:14;;;;;;;3.40;2.87;;;;;;;;;;5053651;28;20178;-65
2022/05/12 11:18:47;;;;;;;4.57;3.07;;;;;;;;;;5053468;28;20194;-65
2022/05/12 11:21:13;;;;;;;3.17;2.80;;;;;;;;;;5035915;28;20706;-65
2022/05/12 11:23:42;;;;;;;4.30;2.47;;;;;;;;;;5053641;28;20253;-65
2022/05/12 11:26:29;;;;;;;2.83;2.57;;;;;;;;;;5053688;28;20178;-65
2022/05/12 11:32:04;;;;;;;2.97;2.67;;;;;;;;;;5053807;28;20239;-65
2022/05/12 11:34:30;;;;;;;5.37;2.40;;;;;;;;;;5035384;28;20549;-65
2022/05/12 11:36:57;;;;;;;5.40;2.80;;;;;;;;;;5035372;28;20195;-65
2022/05/12 11:39:26;;;;;;;5.70;2.97;;;;;;;;;;5035395;28;20232;-65
2022/05/12 11:42:10;;;;;;;5.17;3.63;;;;;;;;;;5035441;28;20174;-65
2022/05/12 11:44:44;;;;;;;5.00;3.17;;;;;;;;;;5035283;28;20186;-65
2022/05/12 11:47:10;;;;;;;5.03;2.60;;;;;;;;;;5053370;28;20198;-65
2022/05/12 11:49:36;;;;;;;3.40;2.70;;;;;;;;;;5053229;28;20605;-65
2022/05/12 11:52:02;;;;;;;4.40;3.20;;;;;;;;;;5035940;28;20182;-65
2022/05/12 11:54:48;;;;;;;3.10;2.70;;;;;;;;;;5052746;28;20209;-65
2022/05/12 11:57:22;;;;;;;3.43;3.00;;;;;;;;;;5052898;28;20199;-65
2022/05/12 11:59:53;;;;;;;2.97;2.43;;;;;;;;;;5052905;28;20212;-65
2022/05/12 12:02:35;;;;;;;3.60;2.60;;;;;;;;;;5053435;28;20533;-65
2022/05/12 12:05:09;;;;;;;3.77;2.57;;;;;;;;;;5035094;28;20655;-69
2022/05/12 12:07:38;;;;;;;4.07;2.50;;;;;;;;;;5053391;28;20202;-65
2022/05/12 12:10:28;;;;;;;2.27;2.07;;;;;;;;;;5054870;28;20178;-65
2022/05/12 12:13:03;;;;;;;4.10;2.80;;;;;;;;;;5057480;28;20190;-65
2022/05/12 12:15:37;;;;;;;3.07;2.50;;;;;;;;;;5057029;28;20174;-65
2022/05/12 12:18:18;;;;;;;2.67;2.33;;;;;;;;;;5056944;28;20191;-65
2022/05/12 12:20:47;;;;;;;5.17;2.40;;;;;;;;;;5056886;28;20174;-64
2022/05/12 12:23:30;;;;;;;3.50;2.87;;;;;;;;;;5057264;28;20189;-65
2022/05/12 12:25:59;;;;;;;5.17;2.73;;;;;;;;;;5038986;28;20198;-65
2022/05/12 12:28:24;;;;;;;3.87;2.60;;;;;;;;;;5038785;28;20308;-65
2022/05/12 12:30:50;;;;;;;2.37;2.17;;;;;;;;;;5056900;28;20254;-65
2022/05/12 12:33:25;;;;;;;3.13;2.80;;;;;;;;;;5038801;28;20210;-65
2022/05/12 12:35:51;;;;;;;3.40;2.40;;;;;;;;;;5057322;28;20174;-65
2022/05/12 12:38:36;;;;;;;3.93;3.13;;;;;;;;;;5056748;28;20681;-65
2022/05/12 12:41:02;;;;;;;4.23;3.23;;;;;;;;;;5038738;28;20179;-65
2022/05/12 12:43:34;;;;;;;3.30;2.77;;;;;;;;;;5056869;28;20566;-65
2022/05/12 12:46:09;;;;;;;2.80;2.20;;;;;;;;;;5057188;28;20569;-65
2022/05/12 12:48:38;;;;;;;3.13;2.70;;;;;;;;;;5038323;28;20220;-65
2022/05/12 12:51:04;;;;;;;2.77;2.57;;;;;;;;;;5056503;28;20254;-65
2022/05/12 12:56:34;;;;;;;3.47;2.27;;;;;;;;;;5056511;28;20205;-65
2022/05/12 12:59:00;;;;;;;4.80;3.10;;;;;;;;;;5056185;28;20190;-65
2022/05/12 13:01:36;;;;;;;4.03;2.70;;;;;;;;;;5056400;28;20186;-65
2022/05/12 13:04:02;;;;;;;5.73;2.70;;;;;;;;;;5038416;28;20193;-66
2022/05/12 13:06:30;;;;;;;3.63;2.80;;;;;;;;;;5056052;28;20179;-65
2022/05/12 13:09:01;;;;;;;3.20;2.87;;;;;;;;;;5038200;28;20206;-65
2022/05/12 13:11:28;;;;;;;4.20;3.00;;;;;;;;;;5056254;28;20197;-65
2022/05/12 13:13:55;;;;;;;3.10;2.47;;;;;;;;;;5056085;28;20715;-65
2022/05/12 13:16:23;;;;;;;3.13;2.63;;;;;;;;;;5038156;28;20216;-65
2022/05/12 13:18:50;;;;;;;4.03;2.87;;;;;;;;;;5055617;28;20663;-65
2022/05/12 13:21:23;;;;;;;3.60;2.40;;;;;;;;;;5055088;28;20178;-65
2022/05/12 13:24:00;;;;;;;5.53;2.60;;;;;;;;;;5055905;28;20638;-65
2022/05/12 13:26:26;;;;;;;3.13;2.83;;;;;;;;;;5037935;28;20190;-65
2022/05/12 13:28:52;;;;;;;4.63;2.87;;;;;;;;;;5055656;28;20222;-65
2022/05/12 13:31:37;;;;;;;4.87;3.23;;;;;;;;;;5055760;28;20183;-65
2022/05/12 13:34:12;;;;;;;3.20;2.90;;;;;;;;;;5037733;28;20259;-65
2022/05/12 13:36:48;;;;;;;4.13;2.77;;;;;;;;;;5055651;28;20174;-63
2022/05/12 13:39:34;;;;;;;4.67;2.97;;;;;;;;;;5055586;28;20228;-65
2022/05/12 13:42:03;;;;;;;5.80;3.00;;;;;;;;;;5055407;28;20183;-66
2022/05/12 13:44:32;;;;;;;3.20;2.63;;;;;;;;;;5055760;28;20185;-67
2022/05/12 13:46:59;;;;;;;3.90;2.97;;;;;;;;;;5037656;28;20207;-66
2022/05/12 13:49:30;;;;;;;4.80;3.03;;;;;;;;;;5037804;28;20566;-66
2022/05/12 13:51:57;;;;;;;2.80;2.60;;;;;;;;;;5055696;28;20182;-66
2022/05/12 13:54:31;;;;;;;5.00;2.97;;;;;;;;;;5055435;28;20210;-66
2022/05/12 13:57:15;;;;;;;4.30;2.83;;;;;;;;;;5037421;28;20292;-65
2022/05/12 13:59:50;;;;;;;3.73;2.53;;;;;;;;;;5055307;28;20637;-64
2022/05/12 14:02:24;;;;;;;6.73;2.97;;;;;;;;;;5055390;28;20215;-66
2022/05/12 14:04:50;;;;;;;6.03;3.13;;;;;;;;;;5055479;28;20178;-66
2022/05/12 14:07:26;;;;;;;4.83;3.00;;;;;;;;;;5054952;28;20206;-65
2022/05/12 14:09:53;;;;;;;3.90;2.70;;;;;;;;;;5055243;28;20170;-66
2022/05/12 14:12:22;;;;;;;3.90;2.70;;;;;;;;;;5054977;28;20205;-66
2022/05/12 14:20:23;;;;;;;4.20;2.90;;;;;;;;;;5054928;28;20630;-65
2022/05/12 14:22:49;;;;;;;5.17;2.60;;;;;;;;;;5054874;28;20583;-66
2022/05/12 14:25:17;;;;;;;5.40;3.10;;;;;;;;;;5054611;28;20253;-66
2022/05/12 14:27:43;;;;;;;4.07;2.50;;;;;;;;;;5054445;28;20221;-66
2022/05/12 14:30:09;;;;;;;4.97;2.77;;;;;;;;;;5036866;28;20184;-65
2022/05/12 14:32:40;;;;;;;5.00;3.30;;;;;;;;;;5054038;28;20551;-65
2022/05/12 14:35:07;;;;;;;4.20;2.90;;;;;;;;;;5054310;28;20202;-65
2022/05/12 14:37:33;;;;;;;5.03;2.80;;;;;;;;;;5054440;28;20201;-65
2022/05/12 14:40:00;;;;;;;2.90;2.60;;;;;;;;;;5054410;28;20171;-65
2022/05/12 14:42:26;;;;;;;5.17;3.20;;;;;;;;;;5054665;28;20186;-66
2022/05/12 14:44:52;;;;;;;5.17;2.80;;;;;;;;;;5054418;28;20186;-65
2022/05/12 14:47:20;;;;;;;4.27;2.87;;;;;;;;;;5036317;28;20206;-65
2022/05/12 14:49:48;;;;;;;4.53;3.40;;;;;;;;;;5036306;28;20537;-65
2022/05/12 14:52:15;;;;;;;3.20;2.90;;;;;;;;;;5055007;28;20520;-65
2022/05/12 14:54:44;;;;;;;6.40;3.07;;;;;;;;;;5054009;28;20202;-65
2022/05/12 14:57:10;;;;;;;3.70;2.33;;;;;;;;;;5036120;28;20198;-65
2022/05/12 14:59:36;;;;;;;4.40;2.87;;;;;;;;;;5054249;28;20183;-65
2022/05/12 15:02:03;;;;;;;3.03;2.50;;;;;;;;;;5036058;28;20552;-65
2022/05/12 15:04:31;;;;;;;5.60;3.63;;;;;;;;;;5054090;28;20264;-65
2022/05/12 15:06:58;;;;;;;3.93;2.90;;;;;;;;;;5053885;28;20576;-65
2022/05/12 15:09:24;;;;;;;3.83;2.80;;;;;;;;;;5054089;28;20657;-65
2022/05/12 15:11:50;;;;;;;5.40;3.67;;;;;;;;;;5054196;28;20202;-65
2022/05/12 15:14:16;;;;;;;4.27;3.00;;;;;;;;;;5053618;28;20210;-65
2022/05/12 15:16:42;;;;;;;4.50;2.97;;;;;;;;;;5053740;28;20537;-68
2022/05/12 15:19:08;;;;;;;5.13;2.87;;;;;;;;;;5035628;28;20182;-65
2022/05/12 15:21:34;;;;;;;13.43;10.13;;;;;;;;;;5053698;28;20193;-65
2022/05/12 15:24:00;;;;;;;24.90;16.60;;;;;;;;;;5053645;28;20638;-65
2022/05/12 15:26:28;;;;;;;4.37;3.00;;;;;;;;;;5053497;28;20232;-65
2022/05/12 15:28:55;;;;;;;3.23;2.93;;;;;;;;;;5035504;28;20230;-65